Skip Navigation LinksHome page > Tools > METAR decoder Skip Navigation Links

METAR decoder

Settings

METAR

Chicago O'Hare Intl, Chicago

For information only: do not use for flight planning or navigation.
Latest weather
Observation time Saturday, April 30, 2016 3:51 AM CDT
Local time Saturday, April 30, 2016 3:59 AM CDT
Flight conditions Visual Meteorological Conditions
Winds
Wind direction East-Northeast (60°)
Wind speed 7 mph
Visibility 10 mi.
Sky condition
Ceiling 17,000 ft. overcast
Cloud layer few clouds 3,300 ft.
Cloud layer overcast 17,000 ft.
Temperature 44°F
Dewpoint 40°F
Altimeter 30.07 in.Hg
Pressure change last 3 hours0.02 in.Hg
Pressure falling, then rising
Derived measurements
Relative humidity 85%
Wind chill 40°F
Density altitude -380 ft.
Sea-level pressure 30.08 in.Hg
Remarks
Automated weather observing station with precipitation discriminator.
METAR KORD 300851Z 06006KT 10SM FEW033 OVC170 07/04 A3007 RMK AO2 SLP185 T00670044 55008

InnerDrive.Weather 4.0.5722.1 Release CLR 4.0.30319.34209
Copyright ©2015 Inner Drive Technology. All rights reserved. Portions Copyright ©1986-2015 David Braverman.

Find weather

Site navigation


Skip Navigation Links

Place info

Page info

PayPal - The safer, easier way to pay online!

Return home.

Copyright ©2016 Inner Drive Technology. Purveyors of fine, hand-crafted computer software. Page printed 2016-04-30T08:59:30 UTC.